Time;durP1;ratioP1;P1;durP2;ratioP2;P2;SDS_P1;SDS_P2;PMS_P1;PMS_P2;Temp;Humidity;BMP_temperature;BMP_pressure;BME280_temperature;BME280_humidity;BME280_pressure;Samples;Min_cycle;Max_cycle;Signal;HPM_P1;HPM_P2
2022/04/09 00:02:09;;;;;;;1.20;1.03;;;;;;;;;;4948261;28;20214;-58
2022/04/09 00:04:36;;;;;;;0.97;0.90;;;;;;;;;;4961734;28;20259;-59
2022/04/09 00:07:04;;;;;;;1.90;1.27;;;;;;;;;;4963167;28;20237;-60
2022/04/09 00:09:31;;;;;;;1.50;1.40;;;;;;;;;;4959301;28;20223;-60
2022/04/09 00:11:58;;;;;;;1.53;1.50;;;;;;;;;;4953679;28;20298;-60
2022/04/09 00:14:25;;;;;;;2.30;1.50;;;;;;;;;;4950868;29;20224;-59
2022/04/09 00:16:52;;;;;;;1.13;1.03;;;;;;;;;;4952536;29;20246;-60
2022/04/09 00:19:20;;;;;;;1.80;1.70;;;;;;;;;;4952361;29;20557;-60
2022/04/09 00:21:47;;;;;;;1.27;1.17;;;;;;;;;;4949664;29;20215;-58
2022/04/09 00:24:14;;;;;;;2.20;1.63;;;;;;;;;;4951841;29;20206;-58
2022/04/09 00:26:42;;;;;;;1.73;1.63;;;;;;;;;;4951178;29;20238;-58
2022/04/09 00:29:09;;;;;;;1.83;1.73;;;;;;;;;;4951338;29;20238;-59
2022/04/09 00:31:36;;;;;;;1.67;1.57;;;;;;;;;;4951612;29;20220;-58
2022/04/09 00:34:04;;;;;;;2.37;1.50;;;;;;;;;;4951171;29;20583;-58
2022/04/09 00:36:32;;;;;;;1.30;1.30;;;;;;;;;;4952515;29;20213;-58
2022/04/09 00:38:59;;;;;;;1.30;1.30;;;;;;;;;;4951370;29;20300;-58
2022/04/09 00:41:26;;;;;;;1.80;1.70;;;;;;;;;;4949601;29;20360;-58
2022/04/09 00:43:53;;;;;;;1.63;1.53;;;;;;;;;;4950512;29;20212;-58
2022/04/09 00:46:20;;;;;;;1.90;1.80;;;;;;;;;;4952498;29;20266;-58
2022/04/09 00:48:47;;;;;;;1.53;1.43;;;;;;;;;;4946498;29;20595;-58
2022/04/09 00:51:15;;;;;;;2.50;2.30;;;;;;;;;;4952786;29;20195;-58
2022/04/09 00:53:44;;;;;;;1.53;1.43;;;;;;;;;;4951404;29;20218;-58
2022/04/09 00:56:15;;;;;;;1.50;1.50;;;;;;;;;;4951705;29;20679;-58
2022/04/09 00:58:47;;;;;;;1.60;1.50;;;;;;;;;;4951220;29;20211;-59
2022/04/09 01:01:14;;;;;;;1.97;1.77;;;;;;;;;;4949952;29;20260;-58
2022/04/09 01:03:42;;;;;;;1.90;1.70;;;;;;;;;;4951159;29;20301;-58
2022/04/09 01:06:10;;;;;;;1.93;1.73;;;;;;;;;;4950463;29;20883;-59
2022/04/09 01:08:37;;;;;;;1.50;1.40;;;;;;;;;;4953609;28;20294;-58
2022/04/09 01:11:05;;;;;;;4.00;2.13;;;;;;;;;;4952318;29;20215;-59
2022/04/09 01:13:33;;;;;;;4.80;2.87;;;;;;;;;;4952148;29;20203;-59
2022/04/09 01:16:00;;;;;;;2.73;2.53;;;;;;;;;;4951155;29;20632;-60
2022/04/09 01:18:27;;;;;;;5.27;3.23;;;;;;;;;;4949463;29;20208;-59
2022/04/09 01:20:58;;;;;;;3.43;3.13;;;;;;;;;;4950202;29;20746;-59
2022/04/09 01:23:26;;;;;;;4.10;3.00;;;;;;;;;;4951990;29;20631;-59
2022/04/09 01:25:53;;;;;;;4.23;3.20;;;;;;;;;;4949838;29;21016;-59
2022/04/09 01:28:20;;;;;;;3.97;3.03;;;;;;;;;;4951714;29;20282;-60
2022/04/09 01:30:47;;;;;;;6.33;3.60;;;;;;;;;;4949881;29;20215;-59
2022/04/09 01:33:17;;;;;;;3.90;3.00;;;;;;;;;;4952008;29;20306;-59
2022/04/09 01:35:45;;;;;;;5.60;3.90;;;;;;;;;;4949708;29;20596;-59
2022/04/09 01:38:12;;;;;;;3.70;3.20;;;;;;;;;;4951658;29;20224;-60
2022/04/09 01:40:41;;;;;;;2.60;2.40;;;;;;;;;;4951225;29;20311;-59
2022/04/09 01:43:08;;;;;;;2.77;2.57;;;;;;;;;;4947449;29;20816;-60
2022/04/09 01:45:35;;;;;;;3.70;3.20;;;;;;;;;;4951248;29;20639;-60
2022/04/09 01:48:03;;;;;;;3.00;2.73;;;;;;;;;;4952753;28;20266;-60
2022/04/09 01:50:32;;;;;;;5.13;3.23;;;;;;;;;;4952191;29;20257;-59
2022/04/09 01:52:59;;;;;;;3.00;2.70;;;;;;;;;;4946433;29;20266;-59
2022/04/09 01:55:26;;;;;;;3.90;2.87;;;;;;;;;;4937773;29;20216;-60
2022/04/09 01:57:54;;;;;;;5.50;3.87;;;;;;;;;;4946452;29;20258;-60
2022/04/09 02:00:22;;;;;;;4.40;3.67;;;;;;;;;;4946669;29;20234;-60
2022/04/09 02:02:49;;;;;;;4.17;3.53;;;;;;;;;;4952376;29;20224;-65
2022/04/09 02:05:16;;;;;;;5.13;3.50;;;;;;;;;;4940408;29;20267;-59
2022/04/09 02:07:45;;;;;;;3.83;3.17;;;;;;;;;;4932841;29;20645;-60
2022/04/09 02:10:12;;;;;;;7.03;3.60;;;;;;;;;;4934067;29;20295;-59
2022/04/09 02:12:39;;;;;;;4.13;3.30;;;;;;;;;;4932734;29;20218;-59
2022/04/09 02:15:09;;;;;;;7.07;3.87;;;;;;;;;;4941023;29;20218;-60
2022/04/09 02:17:37;;;;;;;6.73;3.27;;;;;;;;;;4951610;29;20207;-60
2022/04/09 02:20:04;;;;;;;4.17;3.27;;;;;;;;;;4942720;29;20717;-59
2022/04/09 02:22:35;;;;;;;4.17;3.73;;;;;;;;;;4942449;29;20203;-59
2022/04/09 02:25:02;;;;;;;7.83;3.43;;;;;;;;;;4946926;29;20242;-60
2022/04/09 02:27:30;;;;;;;4.57;3.37;;;;;;;;;;4947215;29;20235;-60
2022/04/09 02:29:57;;;;;;;14.43;3.60;;;;;;;;;;4949517;29;20768;-60
2022/04/09 02:32:25;;;;;;;4.77;3.20;;;;;;;;;;4950037;29;20908;-60
2022/04/09 02:34:53;;;;;;;4.97;3.20;;;;;;;;;;4946711;29;20273;-60
2022/04/09 02:37:21;;;;;;;4.10;3.70;;;;;;;;;;4950192;29;20203;-60
2022/04/09 02:39:48;;;;;;;7.47;4.53;;;;;;;;;;4949527;29;20221;-60
2022/04/09 02:42:15;;;;;;;5.17;3.77;;;;;;;;;;4947441;29;20238;-60
2022/04/09 02:44:43;;;;;;;10.77;4.70;;;;;;;;;;4948197;29;20693;-60
2022/04/09 02:47:10;;;;;;;6.67;4.00;;;;;;;;;;4945688;29;20199;-60
2022/04/09 02:49:38;;;;;;;4.97;3.67;;;;;;;;;;4949274;29;20209;-60
2022/04/09 02:52:07;;;;;;;6.60;3.90;;;;;;;;;;4948145;29;20262;-59
2022/04/09 02:54:34;;;;;;;3.87;3.40;;;;;;;;;;4949926;29;20398;-60
2022/04/09 02:57:01;;;;;;;4.10;3.53;;;;;;;;;;4948891;29;20721;-60
2022/04/09 02:59:28;;;;;;;9.10;4.00;;;;;;;;;;4948362;29;20218;-60
2022/04/09 03:01:55;;;;;;;3.67;3.17;;;;;;;;;;4949515;29;20262;-60
2022/04/09 03:04:22;;;;;;;4.00;3.10;;;;;;;;;;4948366;29;20265;-60
2022/04/09 03:06:50;;;;;;;6.10;3.20;;;;;;;;;;4949709;29;20215;-60
2022/04/09 03:09:18;;;;;;;2.87;2.67;;;;;;;;;;4949241;29;20212;-60
2022/04/09 03:11:45;;;;;;;3.13;2.87;;;;;;;;;;4949442;29;20270;-60
2022/04/09 03:14:12;;;;;;;5.07;3.50;;;;;;;;;;4948963;29;20419;-60
2022/04/09 03:16:39;;;;;;;7.60;3.10;;;;;;;;;;4946920;29;20889;-60
2022/04/09 03:19:06;;;;;;;2.40;2.30;;;;;;;;;;4949688;29;20226;-60
2022/04/09 03:21:33;;;;;;;4.17;2.40;;;;;;;;;;4943143;29;20236;-60
2022/04/09 03:24:01;;;;;;;9.43;2.33;;;;;;;;;;4949093;29;20234;-60
2022/04/09 03:26:28;;;;;;;3.07;2.43;;;;;;;;;;4945822;29;20238;-60
2022/04/09 03:28:55;;;;;;;5.37;2.80;;;;;;;;;;4947637;29;20678;-60
2022/04/09 03:31:22;;;;;;;7.13;2.50;;;;;;;;;;4947572;28;20207;-60
2022/04/09 03:33:52;;;;;;;3.27;2.40;;;;;;;;;;4956931;28;20204;-60
2022/04/09 03:36:19;;;;;;;6.90;2.47;;;;;;;;;;4953457;29;20214;-61
2022/04/09 03:38:47;;;;;;;2.97;2.67;;;;;;;;;;4955856;28;20203;-60
2022/04/09 03:41:15;;;;;;;5.97;2.77;;;;;;;;;;4955256;29;20230;-60
2022/04/09 03:43:42;;;;;;;4.90;2.77;;;;;;;;;;4953549;29;20258;-60
2022/04/09 03:46:09;;;;;;;5.67;2.80;;;;;;;;;;4955382;29;20214;-60
2022/04/09 03:48:36;;;;;;;2.13;2.03;;;;;;;;;;4955352;28;20690;-60
2022/04/09 03:51:03;;;;;;;3.17;2.53;;;;;;;;;;4955077;29;20607;-60
2022/04/09 03:53:30;;;;;;;2.63;2.33;;;;;;;;;;4954301;28;20554;-60
2022/04/09 03:55:57;;;;;;;2.60;2.00;;;;;;;;;;4955751;29;20222;-60
2022/04/09 03:58:26;;;;;;;2.83;2.30;;;;;;;;;;4955334;29;20298;-60
2022/04/09 04:00:53;;;;;;;5.67;2.47;;;;;;;;;;4952720;28;20238;-61
2022/04/09 04:03:20;;;;;;;3.90;3.10;;;;;;;;;;4954965;29;20725;-60
2022/04/09 04:05:47;;;;;;;4.43;1.90;;;;;;;;;;4957189;28;20254;-60
2022/04/09 04:08:15;;;;;;;2.53;2.33;;;;;;;;;;4955537;29;20657;-60
2022/04/09 04:10:42;;;;;;;1.77;1.67;;;;;;;;;;4954517;29;20211;-60
2022/04/09 04:13:10;;;;;;;1.63;1.63;;;;;;;;;;4951939;29;20204;-60
2022/04/09 04:15:40;;;;;;;4.53;1.83;;;;;;;;;;4948750;28;20207;-60
2022/04/09 04:18:07;;;;;;;3.70;1.40;;;;;;;;;;4944181;29;20211;-60
2022/04/09 04:20:35;;;;;;;4.43;1.50;;;;;;;;;;4952558;28;20285;-60
2022/04/09 04:23:03;;;;;;;4.07;1.63;;;;;;;;;;4946099;29;20294;-60
2022/04/09 04:25:30;;;;;;;2.43;1.33;;;;;;;;;;4944496;28;20706;-60
2022/04/09 04:27:57;;;;;;;1.47;1.47;;;;;;;;;;4948528;29;20211;-60
2022/04/09 04:30:24;;;;;;;1.37;1.30;;;;;;;;;;4939575;29;20535;-60
2022/04/09 04:32:52;;;;;;;1.37;1.20;;;;;;;;;;4949120;28;20213;-60
2022/04/09 04:35:19;;;;;;;3.40;1.03;;;;;;;;;;4956008;29;20250;-60
2022/04/09 04:37:47;;;;;;;5.07;1.23;;;;;;;;;;4940970;29;20216;-60
2022/04/09 04:40:15;;;;;;;2.10;1.10;;;;;;;;;;4944338;29;20199;-60
2022/04/09 04:42:43;;;;;;;2.20;1.10;;;;;;;;;;4955483;28;20234;-60
2022/04/09 04:45:11;;;;;;;1.30;1.20;;;;;;;;;;4952356;29;20221;-60
2022/04/09 04:47:45;;;;;;;1.33;1.13;;;;;;;;;;4953119;29;20697;-60
2022/04/09 04:50:13;;;;;;;1.27;1.00;;;;;;;;;;4951615;29;20230;-60
2022/04/09 04:52:40;;;;;;;1.70;0.90;;;;;;;;;;4953448;29;20211;-60
2022/04/09 04:55:08;;;;;;;3.53;0.80;;;;;;;;;;4952925;29;20347;-60
2022/04/09 04:57:42;;;;;;;1.90;0.97;;;;;;;;;;4953172;29;20733;-60
2022/04/09 05:00:09;;;;;;;1.60;0.73;;;;;;;;;;4945707;29;20896;-61
2022/04/09 05:02:36;;;;;;;1.47;0.90;;;;;;;;;;4933780;29;20236;-60
2022/04/09 05:05:04;;;;;;;2.33;1.43;;;;;;;;;;4940925;29;20544;-60
2022/04/09 05:07:39;;;;;;;2.23;1.37;;;;;;;;;;4939235;29;20208;-60
2022/04/09 05:10:06;;;;;;;3.30;1.00;;;;;;;;;;4936827;29;20211;-60
2022/04/09 05:12:34;;;;;;;1.30;1.20;;;;;;;;;;4947635;29;20210;-60
2022/04/09 05:15:01;;;;;;;1.27;1.17;;;;;;;;;;4938205;29;20299;-60
2022/04/09 05:17:28;;;;;;;3.77;1.90;;;;;;;;;;4934292;29;20208;-60
2022/04/09 05:19:55;;;;;;;1.67;0.83;;;;;;;;;;4936482;29;20255;-60
2022/04/09 05:22:22;;;;;;;1.40;1.30;;;;;;;;;;4948700;29;20230;-60
2022/04/09 05:24:50;;;;;;;2.17;1.00;;;;;;;;;;4943833;29;20254;-60
2022/04/09 05:27:17;;;;;;;2.93;1.07;;;;;;;;;;4938441;29;20210;-60
2022/04/09 05:29:44;;;;;;;4.17;1.17;;;;;;;;;;4947831;29;20234;-60
2022/04/09 05:32:11;;;;;;;1.40;1.40;;;;;;;;;;4952565;29;20218;-60
2022/04/09 05:34:38;;;;;;;2.03;1.23;;;;;;;;;;4952272;29;20219;-60
2022/04/09 05:37:05;;;;;;;8.13;1.77;;;;;;;;;;4952683;29;20211;-60
2022/04/09 05:39:32;;;;;;;3.33;1.33;;;;;;;;;;4950900;29;20219;-60
2022/04/09 05:42:01;;;;;;;1.50;1.40;;;;;;;;;;4952276;29;20286;-60
2022/04/09 05:44:28;;;;;;;3.07;1.10;;;;;;;;;;4951930;29;20215;-60
2022/04/09 05:46:55;;;;;;;3.07;1.73;;;;;;;;;;4949670;29;20219;-60
2022/04/09 05:49:22;;;;;;;1.20;1.20;;;;;;;;;;4939715;29;20207;-60
2022/04/09 05:51:49;;;;;;;2.77;1.27;;;;;;;;;;4933100;29;20622;-60
2022/04/09 05:54:16;;;;;;;2.30;1.20;;;;;;;;;;4944814;28;20212;-60
2022/04/09 05:56:43;;;;;;;1.57;1.47;;;;;;;;;;4951549;29;20207;-60
2022/04/09 05:59:12;;;;;;;9.23;2.20;;;;;;;;;;4952235;29;20211;-60
2022/04/09 06:01:39;;;;;;;1.63;1.53;;;;;;;;;;4951579;29;20241;-60
2022/04/09 06:04:07;;;;;;;2.50;1.50;;;;;;;;;;4941807;29;20223;-60
2022/04/09 06:06:34;;;;;;;1.43;1.43;;;;;;;;;;4932728;29;20222;-60
2022/04/09 06:09:01;;;;;;;2.37;1.60;;;;;;;;;;4933902;29;20219;-60
2022/04/09 06:11:29;;;;;;;5.43;1.03;;;;;;;;;;4948534;29;20259;-60
2022/04/09 06:13:56;;;;;;;2.53;0.90;;;;;;;;;;4937571;29;20211;-60
2022/04/09 06:16:25;;;;;;;5.37;1.30;;;;;;;;;;4944014;29;20750;-60
2022/04/09 06:18:52;;;;;;;1.10;0.97;;;;;;;;;;4945956;29;20217;-60
2022/04/09 06:21:19;;;;;;;3.23;1.40;;;;;;;;;;4935512;29;20729;-60
2022/04/09 06:23:46;;;;;;;4.33;1.07;;;;;;;;;;4946037;29;20266;-60
2022/04/09 06:26:13;;;;;;;2.10;0.90;;;;;;;;;;4932332;29;20294;-60
2022/04/09 06:28:40;;;;;;;1.40;1.07;;;;;;;;;;4937415;29;20235;-60
2022/04/09 06:31:07;;;;;;;2.63;1.00;;;;;;;;;;4945093;29;20271;-60
2022/04/09 06:33:35;;;;;;;1.30;0.90;;;;;;;;;;4947847;29;20207;-60
2022/04/09 06:36:02;;;;;;;5.00;1.10;;;;;;;;;;4932961;29;20208;-60
2022/04/09 06:38:31;;;;;;;2.67;1.10;;;;;;;;;;4936436;29;20204;-60
2022/04/09 06:40:58;;;;;;;3.40;1.07;;;;;;;;;;4947582;29;20581;-60
2022/04/09 06:43:26;;;;;;;3.10;1.00;;;;;;;;;;4941577;29;20235;-60
2022/04/09 06:45:53;;;;;;;1.03;1.03;;;;;;;;;;4948567;29;20239;-60
2022/04/09 06:48:20;;;;;;;1.83;0.80;;;;;;;;;;4937366;29;20243;-60
2022/04/09 06:50:48;;;;;;;0.90;0.90;;;;;;;;;;4935580;29;20270;-60
2022/04/09 06:53:15;;;;;;;4.30;1.30;;;;;;;;;;4942334;29;20274;-60
2022/04/09 06:55:43;;;;;;;2.77;1.30;;;;;;;;;;4946216;29;20211;-60
2022/04/09 06:58:10;;;;;;;2.47;1.10;;;;;;;;;;4932098;29;20215;-60
2022/04/09 07:00:37;;;;;;;1.90;1.00;;;;;;;;;;4932646;29;20216;-60
2022/04/09 07:03:04;;;;;;;2.23;1.13;;;;;;;;;;4932476;29;20235;-60
2022/04/09 07:05:31;;;;;;;4.23;1.53;;;;;;;;;;4932632;29;20203;-60
2022/04/09 07:08:01;;;;;;;4.00;1.60;;;;;;;;;;4932060;29;20221;-61
2022/04/09 07:10:28;;;;;;;1.37;1.23;;;;;;;;;;4943286;29;20310;-61
2022/04/09 07:12:55;;;;;;;1.33;1.23;;;;;;;;;;4951679;29;20269;-60
2022/04/09 07:15:22;;;;;;;2.77;1.23;;;;;;;;;;4951373;29;20290;-60
2022/04/09 07:17:49;;;;;;;4.17;1.03;;;;;;;;;;4951378;29;20218;-60
2022/04/09 07:20:16;;;;;;;1.40;1.03;;;;;;;;;;4950773;29;20673;-60
2022/04/09 07:22:43;;;;;;;1.40;1.03;;;;;;;;;;4950050;29;20231;-60
2022/04/09 07:25:12;;;;;;;1.50;1.13;;;;;;;;;;4946486;29;20227;-60
2022/04/09 07:27:39;;;;;;;1.10;1.00;;;;;;;;;;4938684;29;20691;-60
2022/04/09 07:30:08;;;;;;;9.80;1.10;;;;;;;;;;4941435;29;20235;-61
2022/04/09 07:32:35;;;;;;;1.03;0.93;;;;;;;;;;4940594;29;20208;-60
2022/04/09 07:35:02;;;;;;;0.90;0.90;;;;;;;;;;4943617;29;20257;-60
2022/04/09 07:37:29;;;;;;;1.20;1.03;;;;;;;;;;4948004;29;20615;-60
2022/04/09 07:39:56;;;;;;;5.10;1.10;;;;;;;;;;4939396;29;20258;-60
2022/04/09 07:42:25;;;;;;;3.87;1.43;;;;;;;;;;4942501;29;20240;-61
2022/04/09 07:44:52;;;;;;;3.33;1.20;;;;;;;;;;4946156;29;20416;-60
2022/04/09 07:47:19;;;;;;;1.27;0.90;;;;;;;;;;4947758;29;20281;-61
2022/04/09 07:49:47;;;;;;;0.97;0.97;;;;;;;;;;4937148;29;20208;-60
2022/04/09 07:52:14;;;;;;;0.97;0.83;;;;;;;;;;4933699;29;20211;-60
2022/04/09 07:54:41;;;;;;;1.80;1.00;;;;;;;;;;4939833;29;20203;-60
2022/04/09 07:57:08;;;;;;;1.73;1.23;;;;;;;;;;4937732;29;20219;-61
2022/04/09 07:59:37;;;;;;;0.90;0.90;;;;;;;;;;4939078;29;20674;-60
2022/04/09 08:02:04;;;;;;;0.70;0.70;;;;;;;;;;4950673;28;20232;-60
2022/04/09 08:04:31;;;;;;;2.20;0.97;;;;;;;;;;4933417;29;20723;-60
2022/04/09 08:06:58;;;;;;;3.07;0.87;;;;;;;;;;4946040;28;20228;-60
2022/04/09 08:09:25;;;;;;;1.23;0.87;;;;;;;;;;4946881;29;20259;-60
2022/04/09 08:11:53;;;;;;;3.53;0.70;;;;;;;;;;4949451;29;20218;-60
2022/04/09 08:14:20;;;;;;;2.53;1.30;;;;;;;;;;4937830;29;20215;-60
2022/04/09 08:16:48;;;;;;;2.07;0.93;;;;;;;;;;4945966;29;20207;-60
2022/04/09 08:19:17;;;;;;;3.63;1.13;;;;;;;;;;4953229;28;20214;-60
2022/04/09 08:21:45;;;;;;;0.90;0.63;;;;;;;;;;4948903;29;20615;-61
2022/04/09 08:24:12;;;;;;;4.53;0.83;;;;;;;;;;4946665;29;20329;-61
2022/04/09 08:26:39;;;;;;;2.10;0.97;;;;;;;;;;4953455;29;20473;-59
2022/04/09 08:29:06;;;;;;;1.63;0.63;;;;;;;;;;4946646;29;20734;-59
2022/04/09 08:31:34;;;;;;;2.23;0.80;;;;;;;;;;4950858;29;20216;-59
2022/04/09 08:34:03;;;;;;;3.33;1.07;;;;;;;;;;4942303;29;20215;-59
2022/04/09 08:36:30;;;;;;;0.67;0.67;;;;;;;;;;4949550;29;20258;-59
2022/04/09 08:38:58;;;;;;;0.57;0.53;;;;;;;;;;4969338;28;20218;-60
2022/04/09 08:41:26;;;;;;;2.27;0.80;;;;;;;;;;4955959;28;20250;-60
2022/04/09 08:43:54;;;;;;;0.43;0.43;;;;;;;;;;4953009;29;20835;-60
2022/04/09 08:46:21;;;;;;;6.77;1.03;;;;;;;;;;4954182;29;20218;-60
2022/04/09 08:48:49;;;;;;;4.90;1.10;;;;;;;;;;4943193;29;20216;-59
2022/04/09 08:51:17;;;;;;;0.40;0.40;;;;;;;;;;4946853;29;20250;-59
2022/04/09 08:53:45;;;;;;;6.07;0.83;;;;;;;;;;4936329;29;20286;-59
2022/04/09 08:56:15;;;;;;;1.17;0.50;;;;;;;;;;4953703;29;20890;-59
2022/04/09 08:58:42;;;;;;;1.73;0.70;;;;;;;;;;4947345;29;20303;-59
2022/04/09 09:01:10;;;;;;;1.20;0.53;;;;;;;;;;4947483;29;20252;-60
2022/04/09 09:03:38;;;;;;;3.87;0.83;;;;;;;;;;4948003;29;20262;-60
2022/04/09 09:06:25;;;;;;;2.07;0.60;;;;;;;;;;4948827;29;20348;-60
2022/04/09 09:08:54;;;;;;;1.73;0.43;;;;;;;;;;4953740;29;20635;-60
2022/04/09 09:11:21;;;;;;;3.70;0.70;;;;;;;;;;4951429;29;20208;-60
2022/04/09 09:13:48;;;;;;;2.90;0.87;;;;;;;;;;4933739;29;20216;-60
2022/04/09 09:16:22;;;;;;;4.40;0.80;;;;;;;;;;4949018;28;20207;-60
2022/04/09 09:18:50;;;;;;;4.50;1.03;;;;;;;;;;4932512;29;20259;-60
2022/04/09 09:21:22;;;;;;;3.17;0.90;;;;;;;;;;4934327;29;20282;-60
2022/04/09 09:23:55;;;;;;;3.70;0.60;;;;;;;;;;4935091;29;20274;-61
2022/04/09 09:26:24;;;;;;;1.43;0.60;;;;;;;;;;4950154;29;20234;-61
2022/04/09 09:28:56;;;;;;;4.60;0.60;;;;;;;;;;4951333;29;20361;-60
2022/04/09 09:31:38;;;;;;;4.03;0.70;;;;;;;;;;4952122;29;20294;-60
2022/04/09 09:34:08;;;;;;;3.50;0.90;;;;;;;;;;4952880;29;20234;-60
2022/04/09 09:36:36;;;;;;;2.93;0.77;;;;;;;;;;4948676;29;20210;-60
2022/04/09 09:39:04;;;;;;;1.00;0.70;;;;;;;;;;4941735;29;20781;-62
2022/04/09 09:41:32;;;;;;;0.93;0.53;;;;;;;;;;4947106;29;20218;-60
2022/04/09 09:46:51;;;;;;;0.97;0.70;;;;;;;;;;4911084;29;20281;-61
2022/04/09 09:49:18;;;;;;;1.73;0.87;;;;;;;;;;4941498;28;20256;-61
2022/04/09 09:51:46;;;;;;;7.33;0.90;;;;;;;;;;4954077;28;20211;-61
2022/04/09 09:54:14;;;;;;;1.70;0.50;;;;;;;;;;4948063;29;20199;-60
2022/04/09 09:56:43;;;;;;;0.80;0.80;;;;;;;;;;4952620;29;20210;-60
2022/04/09 09:59:13;;;;;;;2.13;0.40;;;;;;;;;;4939726;29;20303;-61
2022/04/09 10:01:40;;;;;;;3.30;0.60;;;;;;;;;;4933816;29;20271;-60
2022/04/09 10:04:28;;;;;;;2.20;0.70;;;;;;;;;;4943230;29;20231;-63
2022/04/09 10:06:55;;;;;;;1.77;0.70;;;;;;;;;;4952264;29;20311;-60
2022/04/09 10:09:23;;;;;;;3.20;0.50;;;;;;;;;;4934612;29;20203;-61
2022/04/09 10:11:54;;;;;;;3.67;0.47;;;;;;;;;;4939717;29;20235;-60
2022/04/09 10:14:22;;;;;;;1.73;0.67;;;;;;;;;;4940727;29;20199;-60
2022/04/09 10:16:51;;;;;;;0.70;0.70;;;;;;;;;;4948701;29;20592;-60
2022/04/09 10:19:19;;;;;;;0.40;0.40;;;;;;;;;;4933033;29;20294;-61
2022/04/09 10:21:50;;;;;;;0.40;0.40;;;;;;;;;;4932866;29;20211;-62
2022/04/09 10:24:19;;;;;;;1.17;0.70;;;;;;;;;;4942790;29;20239;-61
2022/04/09 10:26:46;;;;;;;2.00;0.60;;;;;;;;;;4937821;29;20262;-60
2022/04/09 10:29:15;;;;;;;1.67;0.60;;;;;;;;;;4932567;29;20303;-61
2022/04/09 10:31:43;;;;;;;0.60;0.60;;;;;;;;;;4946162;29;20203;-60
2022/04/09 10:34:11;;;;;;;1.30;0.53;;;;;;;;;;4944107;29;20222;-61
2022/04/09 10:36:57;;;;;;;0.97;0.50;;;;;;;;;;4946056;29;20230;-59
2022/04/09 10:39:25;;;;;;;0.57;0.57;;;;;;;;;;4944043;29;20215;-60
2022/04/09 10:41:53;;;;;;;1.90;0.73;;;;;;;;;;4935543;28;20223;-61
2022/04/09 10:44:36;;;;;;;2.50;0.50;;;;;;;;;;4934689;29;20249;-60
2022/04/09 10:47:03;;;;;;;0.97;0.57;;;;;;;;;;4944001;29;20595;-60
2022/04/09 10:49:30;;;;;;;1.63;0.77;;;;;;;;;;4932471;29;20682;-61
2022/04/09 10:52:14;;;;;;;1.55;0.63;;;;;;;;;;4930326;29;20243;-61
2022/04/09 10:54:43;;;;;;;1.20;0.47;;;;;;;;;;4931843;29;20671;-62
2022/04/09 10:57:11;;;;;;;1.50;0.57;;;;;;;;;;4931939;29;20306;-61
2022/04/09 10:59:41;;;;;;;0.60;0.60;;;;;;;;;;4932412;29;20659;-59
2022/04/09 11:02:09;;;;;;;0.73;0.43;;;;;;;;;;4943052;29;20215;-61
2022/04/09 11:04:42;;;;;;;0.30;0.30;;;;;;;;;;4950778;29;20695;-60
2022/04/09 11:07:11;;;;;;;0.40;0.40;;;;;;;;;;4933755;29;20294;-61
2022/04/09 11:09:51;;;;;;;0.40;0.40;;;;;;;;;;4931950;29;20237;-60
2022/04/09 11:12:21;;;;;;;0.40;0.10;;;;;;;;;;4929905;29;20229;-61
2022/04/09 11:14:51;;;;;;;0.70;0.20;;;;;;;;;;4938242;29;20234;-62
2022/04/09 11:17:18;;;;;;;1.27;0.40;;;;;;;;;;4937317;29;20222;-61
2022/04/09 11:19:46;;;;;;;1.90;0.33;;;;;;;;;;4950122;29;20214;-60
2022/04/09 11:22:13;;;;;;;1.73;0.30;;;;;;;;;;4940605;29;20203;-60
2022/04/09 11:24:41;;;;;;;3.43;0.50;;;;;;;;;;4937606;28;20227;-59
2022/04/09 11:27:08;;;;;;;2.63;0.37;;;;;;;;;;4960884;28;20229;-56
2022/04/09 11:29:35;;;;;;;0.20;0.20;;;;;;;;;;4938285;28;20722;-58
2022/04/09 11:32:04;;;;;;;1.30;0.13;;;;;;;;;;4936458;29;20247;-58
2022/04/09 11:34:46;;;;;;;0.30;0.30;;;;;;;;;;4946533;29;20804;-58
2022/04/09 11:37:13;;;;;;;0.20;0.20;;;;;;;;;;4930745;29;20207;-60
2022/04/09 11:39:46;;;;;;;1.23;0.40;;;;;;;;;;4943333;29;20215;-60
2022/04/09 11:42:13;;;;;;;1.27;0.30;;;;;;;;;;4944576;29;20238;-61
2022/04/09 11:44:40;;;;;;;0.97;0.40;;;;;;;;;;4933434;29;20238;-61
2022/04/09 11:47:13;;;;;;;1.70;0.20;;;;;;;;;;4941526;29;20208;-61
2022/04/09 11:49:41;;;;;;;0.10;0.10;;;;;;;;;;4940825;29;20304;-60
2022/04/09 11:52:08;;;;;;;0.20;0.20;;;;;;;;;;4947115;28;20274;-60
2022/04/09 11:54:38;;;;;;;0.60;0.30;;;;;;;;;;4950977;29;20217;-61
2022/04/09 11:57:09;;;;;;;0.00;0.00;;;;;;;;;;4942438;29;20216;-61
2022/04/09 11:59:36;;;;;;;2.20;0.20;;;;;;;;;;4946684;29;20697;-60
2022/04/09 12:02:03;;;;;;;1.50;0.20;;;;;;;;;;4943864;29;20216;-61
2022/04/09 12:04:35;;;;;;;0.63;0.27;;;;;;;;;;4932164;29;20829;-60
2022/04/09 12:07:03;;;;;;;0.30;0.30;;;;;;;;;;4939909;29;20215;-61
2022/04/09 12:09:30;;;;;;;0.10;0.10;;;;;;;;;;4932770;29;20294;-61
2022/04/09 12:12:00;;;;;;;0.47;0.37;;;;;;;;;;4938796;29;20309;-60
2022/04/09 12:14:28;;;;;;;1.13;0.20;;;;;;;;;;4950183;29;20215;-61
2022/04/09 12:16:55;;;;;;;0.10;0.10;;;;;;;;;;4949893;29;20215;-61
2022/04/09 12:19:32;;;;;;;0.60;0.37;;;;;;;;;;4934582;29;20248;-61
2022/04/09 12:22:13;;;;;;;0.30;0.30;;;;;;;;;;4937341;29;20229;-60
2022/04/09 12:24:47;;;;;;;0.30;0.30;;;;;;;;;;4930760;29;20766;-61
2022/04/09 12:27:14;;;;;;;0.57;0.50;;;;;;;;;;4946237;29;20214;-61
2022/04/09 12:29:47;;;;;;;0.87;0.53;;;;;;;;;;4949172;29;20679;-61
2022/04/09 12:32:15;;;;;;;3.50;0.50;;;;;;;;;;4949211;29;20796;-61
2022/04/09 12:34:52;;;;;;;0.57;0.40;;;;;;;;;;4946196;29;20666;-61
2022/04/09 12:37:20;;;;;;;2.17;0.40;;;;;;;;;;4945895;29;20210;-61
2022/04/09 12:39:47;;;;;;;1.97;0.70;;;;;;;;;;4938253;29;20658;-61
2022/04/09 12:42:15;;;;;;;0.43;0.43;;;;;;;;;;4947560;29;20277;-61
2022/04/09 12:44:43;;;;;;;0.50;0.50;;;;;;;;;;4949067;29;20238;-61
2022/04/09 12:47:10;;;;;;;0.80;0.47;;;;;;;;;;4944411;29;20644;-61
2022/04/09 12:49:38;;;;;;;3.80;0.87;;;;;;;;;;4942202;29;20210;-60
2022/04/09 12:52:06;;;;;;;0.60;0.60;;;;;;;;;;4932764;29;20544;-60
2022/04/09 12:54:35;;;;;;;0.97;0.30;;;;;;;;;;4944822;29;20629;-60
2022/04/09 12:57:06;;;;;;;1.70;0.50;;;;;;;;;;4948124;29;20218;-60
2022/04/09 12:59:33;;;;;;;0.57;0.53;;;;;;;;;;4939445;29;20671;-60
2022/04/09 13:02:00;;;;;;;0.93;0.43;;;;;;;;;;4946869;29;20207;-61
2022/04/09 13:04:27;;;;;;;2.00;0.47;;;;;;;;;;4945983;28;20227;-60
2022/04/09 13:06:54;;;;;;;0.27;0.27;;;;;;;;;;4947609;29;20207;-60
2022/04/09 13:09:21;;;;;;;1.70;0.50;;;;;;;;;;4947226;29;20727;-60
2022/04/09 13:11:50;;;;;;;2.20;0.70;;;;;;;;;;4946604;29;20733;-60
2022/04/09 13:14:17;;;;;;;2.10;0.40;;;;;;;;;;4939505;29;20216;-59
2022/04/09 13:16:44;;;;;;;0.53;0.50;;;;;;;;;;4947136;29;20682;-58
2022/04/09 13:19:11;;;;;;;2.53;0.80;;;;;;;;;;4947115;29;20210;-61
2022/04/09 13:21:38;;;;;;;1.70;0.50;;;;;;;;;;4932822;29;20219;-60
2022/04/09 13:24:06;;;;;;;1.83;0.80;;;;;;;;;;4935973;29;20223;-60
2022/04/09 13:26:33;;;;;;;0.93;0.50;;;;;;;;;;4947230;29;20326;-60
2022/04/09 13:29:01;;;;;;;0.43;0.43;;;;;;;;;;4947396;29;20301;-60
2022/04/09 13:31:31;;;;;;;2.73;0.43;;;;;;;;;;4939772;29;20219;-60
2022/04/09 13:34:00;;;;;;;1.03;0.30;;;;;;;;;;4942645;29;20216;-60
2022/04/09 13:36:27;;;;;;;0.30;0.30;;;;;;;;;;4948266;29;20289;-61
2022/04/09 13:38:54;;;;;;;1.53;0.43;;;;;;;;;;4948279;29;20698;-61
2022/04/09 13:41:23;;;;;;;0.30;0.23;;;;;;;;;;4947995;29;20269;-61
2022/04/09 13:43:50;;;;;;;3.03;0.40;;;;;;;;;;4947157;29;20215;-60
2022/04/09 13:46:19;;;;;;;0.67;0.30;;;;;;;;;;4947920;29;20769;-61
2022/04/09 13:48:46;;;;;;;4.27;0.50;;;;;;;;;;4937105;29;20224;-60
2022/04/09 13:51:14;;;;;;;1.00;0.50;;;;;;;;;;4929048;29;20216;-60
2022/04/09 13:53:41;;;;;;;2.00;0.53;;;;;;;;;;4928819;29;20219;-60
2022/04/09 13:59:11;;;;;;;0.80;0.53;;;;;;;;;;4938457;29;20665;-60
2022/04/09 14:01:40;;;;;;;0.80;0.43;;;;;;;;;;4946557;29;20222;-60
2022/04/09 14:04:07;;;;;;;0.60;0.50;;;;;;;;;;4947131;29;20227;-60
2022/04/09 14:06:34;;;;;;;0.80;0.57;;;;;;;;;;4947473;29;20306;-60
2022/04/09 14:09:01;;;;;;;3.40;0.73;;;;;;;;;;4942319;29;20289;-60
2022/04/09 14:11:28;;;;;;;1.73;0.60;;;;;;;;;;4939228;29;20215;-60
2022/04/09 14:13:55;;;;;;;1.20;0.87;;;;;;;;;;4947413;29;20589;-61
2022/04/09 14:16:22;;;;;;;1.17;0.70;;;;;;;;;;4947079;28;20375;-61
2022/04/09 14:18:51;;;;;;;2.60;1.10;;;;;;;;;;4946619;29;20226;-61
2022/04/09 14:21:18;;;;;;;2.93;1.50;;;;;;;;;;4939949;29;20207;-60
2022/04/09 14:23:45;;;;;;;2.17;0.70;;;;;;;;;;4947448;29;20228;-60
2022/04/09 14:26:13;;;;;;;0.80;0.80;;;;;;;;;;4947227;29;20242;-60
2022/04/09 14:28:40;;;;;;;1.63;1.37;;;;;;;;;;4935480;29;20331;-60
2022/04/09 14:31:13;;;;;;;0.97;0.73;;;;;;;;;;4942691;29;20741;-61
2022/04/09 14:33:40;;;;;;;0.57;0.50;;;;;;;;;;4947089;29;20241;-59
2022/04/09 14:36:09;;;;;;;0.83;0.50;;;;;;;;;;4946956;29;20268;-59
2022/04/09 14:38:36;;;;;;;1.13;0.43;;;;;;;;;;4947093;29;20266;-61
2022/04/09 14:41:03;;;;;;;2.20;0.70;;;;;;;;;;4932185;29;20641;-61
2022/04/09 14:43:31;;;;;;;0.50;0.50;;;;;;;;;;4927804;29;20212;-59
2022/04/09 14:45:58;;;;;;;0.33;0.33;;;;;;;;;;4942832;29;20326;-59
2022/04/09 14:48:25;;;;;;;0.60;0.30;;;;;;;;;;4946095;29;20211;-61
2022/04/09 14:50:53;;;;;;;0.57;0.50;;;;;;;;;;4933706;29;20581;-59
2022/04/09 14:53:22;;;;;;;2.60;0.37;;;;;;;;;;4929465;29;20679;-60
2022/04/09 14:55:49;;;;;;;1.80;0.40;;;;;;;;;;4927399;29;20215;-60